Leyendecker II PSRC

2021-09-20 23:45:00

  • imperial
Date Time Air Temperature Relative Humidity Dewpoint Heat Index Wind Speed Wind Dir. Rain Solar Radiation Soil Temperature
2m 2m 3m 3m 10cm
US/Mountain F % F F MPH deg in MJ/m^2 F
max avg avg
2021-09-19 23:50:00 69.9 65.9 58.0 69.9 0.0 2.1 1.0 253.1 91.4 0.00 0.0000005 74.9
2021-09-19 23:55:00 69.9 62.1 56.3 69.9 1.0 1.2 0.4 9.9 346.5 0.00 0.0000000 74.9
2021-09-20 00:00:00 70.1 59.7 55.4 70.1 0.0 2.1 0.4 298.5 313.3 0.00 0.0000000 74.9
2021-09-20 00:05:00 70.4 59.7 55.7 70.4 1.2 2.4 1.0 248.5 336.9 0.00 0.0000038 74.9
2021-09-20 00:10:00 70.5 60.4 56.1 70.5 0.8 1.2 0.3 324.1 273.9 0.00 0.0000000 74.8
2021-09-20 00:15:00 70.4 59.9 55.8 70.4 1.3 2.1 1.3 301.2 317.1 0.00 0.0000000 74.8
2021-09-20 00:20:00 70.3 61.4 56.4 70.3 0.0 1.3 0.5 267.1 295.1 0.00 0.0000000 74.8
2021-09-20 00:25:00 69.9 62.7 56.6 69.9 1.9 2.1 0.9 46.4 40.9 0.00 0.0000000 74.8
2021-09-20 00:30:00 70.3 60.1 55.8 70.3 2.8 3.0 2.5 44.1 42.0 0.00 0.0000000 74.8
2021-09-20 00:35:00 70.5 60.7 56.2 70.5 2.1 3.0 2.3 20.7 23.3 0.00 0.0000000 74.8
2021-09-20 00:40:00 70.5 59.9 55.9 70.5 1.5 2.4 2.0 23.4 15.7 0.00 0.0000000 74.7
2021-09-20 00:45:00 70.4 59.3 55.5 70.4 1.0 1.7 1.1 49.1 28.7 0.00 0.0000000 74.7
2021-09-20 00:50:00 69.9 61.6 56.1 69.9 0.0 1.2 0.2 45.7 39.8 0.00 0.0000000 74.7
2021-09-20 00:55:00 69.1 64.0 56.4 69.1 0.0 0.0 0.0 38.6 0.0 0.00 0.0000000 74.7
2021-09-20 01:00:00 68.7 65.4 56.6 68.7 0.0 1.9 0.8 103.7 55.7 0.00 0.0000000 74.7
2021-09-20 01:05:00 68.6 63.9 55.9 68.6 0.0 1.9 0.6 54.5 31.9 0.00 0.0000000 74.6
2021-09-20 01:10:00 68.1 65.3 56.1 68.1 0.0 1.2 0.2 63.9 65.6 0.00 0.0000000 74.6
2021-09-20 01:15:00 67.9 67.0 56.5 67.9 0.0 0.8 0.1 75.7 53.7 0.00 0.0000000 74.6
2021-09-20 01:20:00 67.4 68.5 56.7 67.4 0.0 1.5 0.3 93.9 66.5 0.00 0.0000000 74.6
2021-09-20 01:25:00 67.5 67.2 56.2 67.5 0.0 1.2 0.4 36.2 92.4 0.00 0.0000000 74.6
2021-09-20 01:30:00 67.2 67.2 56.0 67.2 0.0 0.0 0.0 231.4 0.0 0.00 0.0000000 74.6
2021-09-20 01:35:00 67.1 67.1 55.8 67.1 0.0 0.0 0.0 246.4 0.0 0.00 0.0000000 74.6
2021-09-20 01:40:00 66.8 68.3 56.0 66.8 0.0 0.0 0.0 344.7 0.0 0.00 0.0000000 74.5
2021-09-20 01:45:00 66.4 70.2 56.4 66.4 0.0 1.3 0.3 345.8 328.5 0.00 0.0000000 74.5
2021-09-20 01:50:00 66.3 67.2 55.1 66.3 2.1 2.4 0.9 35.6 272.0 0.00 0.0000328 74.5
2021-09-20 01:55:00 67.8 59.8 53.3 67.8 2.1 3.1 1.9 319.3 294.2 0.00 0.0000838 74.5
2021-09-20 02:00:00 69.1 55.9 52.7 69.1 3.7 3.8 2.1 272.5 298.7 0.00 0.0000270 74.5
2021-09-20 02:05:00 70.7 52.6 52.6 70.7 2.2 5.6 3.0 249.9 266.3 0.00 0.0000220 74.5
2021-09-20 02:10:00 71.7 50.5 52.3 71.7 1.9 4.0 2.9 291.8 262.5 0.00 0.0000000 74.4
2021-09-20 02:15:00 72.3 49.3 52.2 72.3 3.0 5.6 3.3 250.7 267.1 0.00 0.0000000 74.4
2021-09-20 02:20:00 72.4 48.1 51.7 72.4 3.0 6.2 2.8 327.8 301.0 0.00 0.0000000 74.4
2021-09-20 02:25:00 71.3 52.7 53.2 71.3 3.8 4.0 3.3 16.2 20.3 0.00 0.0000000 74.4
2021-09-20 02:30:00 70.8 53.6 53.1 70.8 1.5 4.2 2.8 324.9 357.8 0.00 0.0000000 74.4
2021-09-20 02:35:00 70.5 53.8 53.0 70.5 2.4 2.8 1.9 0.6 335.9 0.00 0.0000000 74.4
2021-09-20 02:40:00 70.4 54.2 53.0 70.4 1.9 2.8 2.2 330.1 351.6 0.00 0.0000000 74.3
2021-09-20 02:45:00 70.4 53.8 52.8 70.4 1.5 2.4 1.8 339.7 342.8 0.00 0.0000000 74.3
2021-09-20 02:50:00 70.6 52.2 52.2 70.6 1.9 3.3 2.0 299.2 299.1 0.00 0.0000000 74.3
2021-09-20 02:55:00 70.4 54.0 52.9 70.4 2.8 3.3 2.6 349.5 350.0 0.00 0.0000000 74.2
2021-09-20 03:00:00 69.9 55.5 53.2 69.9 3.3 3.3 2.9 33.6 13.3 0.00 0.0000000 74.2
2021-09-20 03:05:00 69.1 57.9 53.7 69.1 1.9 3.5 3.0 43.0 34.9 0.00 0.0000000 74.2
2021-09-20 03:10:00 68.6 58.2 53.3 68.6 1.3 2.1 1.5 233.6 303.8 0.00 0.0000000 74.2
2021-09-20 03:15:00 68.5 57.9 53.1 68.5 1.9 2.6 1.7 316.8 275.7 0.00 0.0000000 74.2
2021-09-20 03:20:00 67.7 61.8 54.1 67.7 2.1 2.1 1.7 60.2 39.5 0.00 0.0000000 74.2
2021-09-20 03:25:00 67.2 62.5 53.9 67.2 1.2 2.2 1.9 5.0 22.1 0.00 0.0000000 74.2
2021-09-20 03:30:00 66.8 62.8 53.7 66.8 0.0 1.2 0.4 60.4 5.7 0.00 0.0000000 74.1
2021-09-20 03:35:00 66.6 64.4 54.2 66.6 2.4 2.8 2.0 48.3 59.0 0.00 0.0000000 74.1
2021-09-20 03:40:00 66.1 68.0 55.3 66.1 0.8 3.3 2.1 75.5 66.8 0.00 0.0000000 74.1
2021-09-20 03:45:00 65.4 68.5 54.8 65.4 0.8 1.9 0.9 199.4 95.1 0.00 0.0000000 74.1
2021-09-20 03:50:00 65.2 66.8 53.9 65.2 2.1 2.1 0.3 23.4 354.7 0.00 0.0000008 74.0
2021-09-20 03:55:00 65.5 66.7 54.1 65.5 2.4 2.6 1.9 23.9 12.0 0.00 0.0000000 74.0
2021-09-20 04:00:00 66.1 66.1 54.4 66.1 1.9 2.6 2.2 19.0 21.3 0.00 0.0000000 74.0
2021-09-20 04:05:00 66.3 65.1 54.3 66.3 2.2 2.6 1.9 350.0 357.0 0.00 0.0000000 74.0
2021-09-20 04:10:00 66.7 62.8 53.6 66.7 1.2 2.6 1.9 294.0 327.9 0.00 0.0000000 74.0
2021-09-20 04:15:00 66.8 63.7 54.1 66.8 0.8 1.9 1.3 295.1 292.7 0.00 0.0000000 74.0
2021-09-20 04:20:00 66.2 68.9 55.7 66.2 0.0 1.0 0.1 69.5 74.4 0.00 0.0000000 74.0
2021-09-20 04:25:00 65.2 73.4 56.5 65.2 1.3 1.5 1.2 126.7 123.3 0.00 0.0000000 73.9
2021-09-20 04:30:00 64.6 75.3 56.6 64.6 1.2 1.9 1.5 151.8 131.2 0.00 0.0000000 73.9
2021-09-20 04:35:00 64.2 75.9 56.4 64.2 1.9 2.1 1.5 133.4 153.2 0.00 0.0000000 73.9
2021-09-20 04:40:00 63.9 76.8 56.5 63.9 1.5 2.2 1.5 177.5 146.5 0.00 0.0000000 73.9
2021-09-20 04:45:00 63.5 76.8 56.1 63.5 1.0 2.1 1.6 154.0 174.0 0.00 0.0000000 73.9
2021-09-20 04:50:00 63.3 76.2 55.7 63.3 0.0 1.2 0.5 14.2 115.5 0.00 0.0000000 73.8
2021-09-20 04:55:00 62.8 78.1 55.9 62.8 0.0 1.9 0.9 33.8 31.7 0.00 0.0000000 73.8
2021-09-20 05:00:00 62.7 77.6 55.6 62.7 1.0 2.1 1.2 241.7 213.8 0.00 0.0000000 73.8
2021-09-20 05:05:00 62.8 78.0 55.8 62.8 1.3 1.3 0.4 210.3 207.0 0.00 0.0000000 73.8
2021-09-20 05:10:00 62.8 78.5 56.0 62.8 0.0 1.3 0.5 215.0 205.0 0.00 0.0000000 73.8
2021-09-20 05:15:00 62.4 78.9 55.8 62.4 0.0 0.0 0.0 223.5 0.0 0.00 0.0000000 73.7
2021-09-20 05:20:00 62.0 80.1 55.8 62.0 0.0 0.0 0.0 130.1 0.0 0.00 0.0000000 73.7
2021-09-20 05:25:00 61.5 82.0 56.0 61.5 0.8 1.2 0.6 81.6 76.5 0.00 0.0000000 73.7
2021-09-20 05:30:00 61.1 86.2 56.9 61.1 2.8 2.8 1.4 159.7 152.3 0.00 0.0000000 73.7
2021-09-20 05:35:00 60.8 86.7 56.8 60.8 1.7 3.0 1.8 171.0 159.1 0.00 0.0000000 73.7
2021-09-20 05:40:00 60.8 86.8 56.9 60.8 1.3 1.9 1.6 193.7 192.5 0.00 0.0000000 73.7
2021-09-20 05:45:00 60.8 86.9 56.9 60.8 0.8 1.3 1.2 121.3 173.3 0.00 0.0000000 73.7
2021-09-20 05:50:00 60.6 88.2 57.1 60.6 0.0 0.8 0.1 120.6 109.8 0.00 0.0000000 73.7
2021-09-20 05:55:00 60.3 88.3 56.9 60.3 0.0 0.0 0.0 197.6 0.0 0.00 0.0000000 73.6
2021-09-20 06:00:00 60.1 87.4 56.3 60.1 0.0 0.0 0.0 310.3 0.0 0.00 0.0000000 73.6
2021-09-20 06:05:00 59.8 85.5 55.5 59.8 0.8 1.5 1.1 297.0 298.1 0.00 0.0000000 73.6
2021-09-20 06:10:00 59.6 85.0 55.1 59.6 0.0 1.3 0.4 331.4 329.2 0.00 0.0000000 73.6
2021-09-20 06:15:00 59.6 85.1 55.1 59.6 1.5 1.5 0.5 13.8 347.7 0.00 0.0000000 73.5
2021-09-20 06:20:00 59.4 87.6 55.7 59.4 1.7 2.1 1.8 46.4 31.0 0.00 0.0000000 73.5
2021-09-20 06:25:00 59.2 88.7 55.9 59.2 0.0 1.7 0.2 60.9 55.5 0.00 0.0000000 73.5
2021-09-20 06:30:00 59.1 89.8 56.1 59.1 0.0 1.3 0.2 78.2 61.8 0.00 0.0000000 73.5
2021-09-20 06:35:00 58.9 90.1 56.0 58.9 0.0 0.0 0.0 194.1 0.0 0.00 0.0000000 73.5
2021-09-20 06:40:00 59.1 91.0 56.5 59.1 1.7 1.7 0.9 204.2 208.0 0.00 0.0000000 73.5
2021-09-20 06:45:00 59.2 90.4 56.4 59.2 2.6 2.6 2.1 204.6 204.3 0.00 0.0000115 73.4
2021-09-20 06:50:00 59.3 90.1 56.4 59.3 2.6 3.1 2.8 182.8 187.7 0.00 0.0002643 73.4
2021-09-20 06:55:00 59.2 89.9 56.3 59.2 1.3 2.8 1.8 12.1 100.6 0.00 0.0006447 73.4
2021-09-20 07:00:00 58.9 89.5 55.8 58.9 1.0 1.5 0.6 107.2 87.0 0.00 0.0013597 73.4
2021-09-20 07:05:00 58.9 91.4 56.4 58.9 1.2 1.7 0.8 157.5 139.0 0.00 0.0027793 73.3
2021-09-20 07:10:00 58.9 92.2 56.7 58.9 0.0 1.2 0.1 148.3 157.5 0.00 0.0076770 73.3
2021-09-20 07:15:00 59.5 91.0 56.9 59.5 0.0 0.0 0.0 86.2 0.0 0.00 0.0140496 73.3
2021-09-20 07:20:00 59.8 89.5 56.8 59.8 1.7 1.7 1.0 158.9 186.7 0.00 0.0185571 73.3
2021-09-20 07:25:00 60.8 88.0 57.3 60.8 1.0 2.2 1.7 147.8 163.3 0.00 0.0229836 73.3
2021-09-20 07:30:00 61.6 85.0 57.0 61.6 1.7 2.1 1.2 148.9 160.9 0.00 0.0278696 73.3
2021-09-20 07:35:00 61.9 83.0 56.7 61.9 3.0 3.1 2.4 176.2 161.9 0.00 0.0331569 73.2
2021-09-20 07:40:00 62.3 82.3 56.8 62.3 3.0 3.3 2.7 171.0 164.7 0.00 0.0371335 73.2
2021-09-20 07:45:00 62.9 82.2 57.4 62.9 3.1 4.6 3.6 182.4 170.2 0.00 0.0409426 73.2
2021-09-20 07:50:00 63.6 78.3 56.7 63.6 3.8 4.7 3.8 159.5 163.1 0.00 0.0450897 73.2
2021-09-20 07:55:00 64.7 77.6 57.5 64.7 1.7 4.2 2.3 210.6 184.4 0.00 0.0500324 73.2
2021-09-20 08:00:00 65.7 73.1 56.9 65.7 1.9 4.2 2.6 178.0 175.8 0.00 0.0545378 73.2
2021-09-20 08:05:00 66.8 70.3 56.8 66.8 1.7 3.5 2.0 156.8 175.5 0.00 0.0589504 73.1
2021-09-20 08:10:00 68.0 68.2 57.1 68.0 0.8 2.6 1.6 159.2 177.9 0.00 0.0638535 73.1
2021-09-20 08:15:00 69.6 64.0 56.9 69.6 2.6 2.6 1.8 126.1 138.7 0.00 0.0685608 73.1
2021-09-20 08:20:00 71.2 62.4 57.7 71.2 1.7 2.6 1.8 100.7 114.4 0.00 0.0735851 73.1
2021-09-20 08:25:00 72.2 58.5 56.8 72.2 1.5 3.3 1.9 24.6 50.1 0.00 0.0787833 73.1
2021-09-20 08:30:00 72.7 59.5 57.8 72.7 3.0 3.1 2.4 113.6 94.7 0.00 0.0830853 73.1
2021-09-20 08:35:00 72.7 60.7 58.3 72.7 3.5 3.5 2.4 125.5 113.8 0.00 0.0879987 73.1
2021-09-20 08:40:00 72.9 60.3 58.3 72.9 2.6 3.8 2.9 110.2 111.7 0.00 0.0932596 73.1
2021-09-20 08:45:00 73.4 55.8 56.7 73.4 1.9 4.0 2.7 98.6 103.2 0.00 0.0989886 73.1
2021-09-20 08:50:00 74.6 52.9 56.3 74.6 1.3 2.4 1.8 52.8 102.6 0.00 0.1045367 73.1
2021-09-20 08:55:00 75.8 49.6 55.7 75.8 1.9 3.1 1.7 33.0 9.0 0.00 0.1098463 73.1
2021-09-20 09:00:00 75.3 52.1 56.6 75.3 3.3 5.3 3.6 105.7 40.6 0.00 0.1151092 73.1
2021-09-20 09:05:00 76.4 50.8 56.8 76.4 3.0 3.0 1.9 173.0 69.8 0.00 0.1204830 73.1
2021-09-20 09:10:00 76.6 49.4 56.2 76.6 2.6 3.3 2.4 348.7 83.2 0.00 0.1257679 73.0
2021-09-20 09:15:00 77.2 48.8 56.4 77.2 3.5 3.8 2.5 335.8 355.3 0.00 0.1315679 73.1
2021-09-20 09:20:00 77.8 45.7 55.2 77.8 2.4 3.8 2.4 233.5 313.7 0.00 0.1366771 73.1
2021-09-20 09:25:00 78.2 44.8 55.0 78.2 4.2 4.2 2.3 292.9 254.7 0.00 0.1418287 73.1
2021-09-20 09:30:00 78.3 46.6 56.2 78.3 2.8 3.8 3.0 286.1 243.2 0.00 0.1469439 73.1
2021-09-20 09:35:00 79.3 41.7 54.0 79.3 4.6 5.3 3.6 237.4 266.4 0.00 0.1527289 73.1
2021-09-20 09:40:00 80.1 41.3 54.5 80.1 3.5 5.1 3.6 237.1 277.1 0.00 0.1581929 73.1
2021-09-20 09:45:00 80.2 40.8 54.3 80.2 5.1 5.8 4.2 255.1 269.9 0.00 0.1636098 73.1
2021-09-20 09:50:00 81.0 39.9 54.3 81.0 6.5 6.9 4.6 327.0 303.7 0.00 0.1680490 73.1
2021-09-20 09:55:00 80.5 40.4 54.2 80.3 4.7 7.6 5.3 343.2 337.1 0.00 0.1725617 73.2
2021-09-20 10:00:00 80.8 41.2 55.1 80.6 4.0 6.3 4.7 29.8 345.5 0.00 0.1774125 73.2
2021-09-20 10:05:00 80.9 41.1 55.0 80.7 5.1 5.1 3.9 303.2 348.1 0.00 0.1820957 73.2
2021-09-20 10:10:00 81.3 40.9 55.3 81.0 3.1 6.0 4.4 303.6 325.6 0.00 0.1855429 73.2
2021-09-20 10:15:00 81.4 38.5 53.7 81.4 5.8 6.2 4.7 316.2 356.6 0.00 0.1884551 73.2
2021-09-20 10:20:00 81.6 36.9 52.7 81.6 6.2 7.2 4.8 25.2 355.7 0.00 0.1928373 73.3
2021-09-20 10:25:00 81.7 37.8 53.5 81.7 4.9 7.8 5.9 0.2 17.8 0.00 0.1953669 73.3
2021-09-20 10:30:00 82.3 38.4 54.4 82.3 5.1 8.7 6.1 315.4 348.5 0.00 0.1996723 73.3
2021-09-20 10:35:00 82.5 37.1 53.7 82.5 3.7 8.1 6.0 336.7 338.2 0.00 0.2051798 73.4
2021-09-20 10:40:00 82.8 34.7 52.1 82.8 7.1 7.1 5.3 336.5 342.6 0.00 0.2073592 73.4
2021-09-20 10:45:00 83.0 35.2 52.7 83.0 2.8 7.4 3.9 321.8 345.8 0.00 0.2139593 73.4
2021-09-20 10:50:00 83.8 32.5 51.2 83.8 2.8 7.1 3.5 52.6 334.5 0.00 0.2167386 73.4
2021-09-20 10:55:00 84.2 35.5 54.0 84.2 1.0 5.1 2.3 130.2 326.3 0.00 0.2213623 73.5
2021-09-20 11:00:00 84.6 31.5 51.0 84.6 2.4 4.7 2.9 249.0 344.5 0.00 0.2235907 73.5
2021-09-20 11:05:00 85.5 33.1 53.2 85.5 1.2 3.7 1.9 221.8 347.6 0.00 0.2290018 73.6
2021-09-20 11:10:00 85.7 29.8 50.5 85.7 3.8 4.6 3.1 320.4 277.8 0.00 0.2325440 73.6
2021-09-20 11:15:00 85.7 29.8 50.6 85.7 6.2 8.1 5.6 321.0 340.9 0.00 0.2358574 73.6
2021-09-20 11:20:00 85.3 29.8 50.2 85.3 8.0 8.3 5.5 342.5 342.7 0.00 0.2387349 73.7
2021-09-20 11:25:00 86.0 25.6 46.7 86.0 3.1 7.1 3.7 13.1 327.2 0.00 0.2421633 73.7
2021-09-20 11:30:00 86.2 25.8 47.1 86.2 9.0 10.1 6.0 333.1 336.7 0.00 0.2455238 73.7
2021-09-20 11:35:00 86.4 28.4 49.9 86.4 6.3 8.5 6.9 336.7 341.8 0.00 0.2477534 73.8
2021-09-20 11:40:00 86.8 26.9 48.7 86.8 3.8 6.5 4.9 292.4 312.1 0.00 0.2502207 73.8
2021-09-20 11:45:00 87.2 26.6 48.8 87.2 7.1 8.5 5.8 317.9 305.3 0.00 0.2524461 73.9
2021-09-20 11:50:00 87.0 25.8 47.8 87.0 4.6 8.7 5.0 325.1 322.4 0.00 0.2549062 73.9
2021-09-20 11:55:00 87.0 24.1 46.0 87.0 4.6 7.2 5.4 251.6 329.6 0.00 0.2570401 73.9
2021-09-20 12:00:00 88.9 21.9 44.9 88.9 7.4 12.6 7.3 287.1 289.9 0.00 0.2592667 74.0
2021-09-20 12:05:00 88.6 24.0 47.2 88.6 5.6 10.1 6.6 260.8 274.7 0.00 0.2622927 74.0
2021-09-20 12:10:00 88.7 23.4 46.6 88.7 7.1 10.1 7.0 284.7 281.1 0.00 0.2634778 74.1
2021-09-20 12:15:00 87.7 23.6 45.9 87.7 6.5 10.1 7.7 253.1 264.5 0.00 0.2656097 74.1
2021-09-20 12:20:00 88.2 23.8 46.6 88.2 8.0 10.3 6.3 260.4 269.7 0.00 0.2669264 74.2
2021-09-20 12:25:00 87.7 23.2 45.6 87.7 9.9 9.9 5.7 260.2 243.1 0.00 0.2691691 74.2
2021-09-20 12:30:00 87.8 22.0 44.2 87.8 7.2 12.6 7.8 297.9 258.0 0.00 0.2698459 74.3
2021-09-20 12:35:00 88.1 20.8 42.9 88.1 9.9 15.3 8.3 265.3 255.7 0.00 0.2705908 74.3
2021-09-20 12:40:00 87.8 21.7 43.8 87.8 9.0 14.0 8.3 280.8 252.7 0.00 0.2709465 74.4
2021-09-20 12:45:00 89.5 21.8 45.4 89.5 12.4 15.6 11.5 314.9 314.2 0.00 0.2715077 74.4
2021-09-20 12:50:00 89.5 23.8 47.7 89.5 8.7 11.5 9.4 327.9 319.1 0.00 0.2726572 74.4
2021-09-20 12:55:00 90.2 19.8 43.4 90.2 8.8 13.1 9.0 305.4 318.0 0.00 0.2741842 74.5
2021-09-20 13:00:00 90.2 16.2 38.2 90.2 11.2 11.9 8.4 318.5 301.7 0.00 0.2745384 74.6
2021-09-20 13:05:00 90.9 20.8 45.4 90.9 5.3 12.6 6.6 236.3 292.1 0.00 0.2749901 74.6
2021-09-20 13:10:00 89.5 19.3 42.2 89.5 9.7 11.7 8.7 289.3 259.8 0.00 0.2758320 74.6
2021-09-20 13:15:00 89.2 19.6 42.3 89.2 6.0 12.1 8.1 275.8 256.6 0.00 0.2755367 74.6
2021-09-20 13:20:00 89.6 19.6 42.8 89.6 3.3 12.1 6.7 336.3 268.6 0.00 0.2754163 74.7
2021-09-20 13:25:00 89.9 19.5 42.8 89.9 6.5 8.1 5.9 266.4 266.0 0.00 0.2748159 74.7
2021-09-20 13:30:00 91.1 19.0 43.1 91.1 8.7 10.6 7.7 310.6 291.4 0.00 0.2730449 74.8
2021-09-20 13:35:00 91.1 20.5 45.0 91.1 6.7 12.2 8.6 282.9 302.8 0.00 0.2721063 74.8
2021-09-20 13:40:00 90.3 19.8 43.6 90.3 6.7 18.0 10.8 198.5 282.8 0.00 0.2725650 74.8
2021-09-20 13:45:00 89.9 15.8 37.4 89.9 11.2 16.7 9.1 256.3 276.2 0.00 0.2703216 74.9
2021-09-20 13:50:00 91.2 15.0 37.1 91.2 11.2 15.1 10.3 311.7 298.2 0.00 0.2703516 74.9
2021-09-20 13:55:00 91.4 17.6 41.3 91.4 6.5 11.5 7.9 296.6 288.0 0.00 0.2689814 74.9
2021-09-20 14:00:00 91.4 16.3 39.4 91.4 6.7 13.9 8.4 268.0 270.1 0.00 0.2678058 75.0
2021-09-20 14:05:00 90.4 18.8 42.3 90.4 7.1 12.6 6.9 232.1 263.3 0.00 0.2661393 75.0
2021-09-20 14:10:00 90.8 15.4 37.4 90.8 5.3 15.6 9.2 247.3 277.6 0.00 0.2640394 75.1
2021-09-20 14:15:00 89.9 16.9 39.1 89.9 13.5 13.5 8.4 245.8 242.6 0.00 0.2623969 75.1
2021-09-20 14:20:00 90.0 17.0 39.3 90.0 7.4 9.4 6.7 204.6 244.5 0.00 0.2581487 75.1
2021-09-20 14:25:00 91.5 15.2 37.6 91.5 7.4 13.3 8.1 273.8 282.1 0.00 0.2567141 75.1
2021-09-20 14:30:00 92.2 14.2 36.6 92.2 8.3 9.2 6.1 306.6 289.4 0.00 0.2543523 75.1
2021-09-20 14:35:00 91.4 14.9 37.1 91.4 6.7 13.9 8.8 278.2 268.3 0.00 0.2522734 75.2
2021-09-20 14:40:00 91.9 14.6 37.0 91.9 6.7 13.7 7.7 319.2 286.0 0.00 0.2484525 75.2
2021-09-20 14:45:00 91.4 15.5 38.1 91.4 4.9 13.5 9.3 288.1 281.6 0.00 0.2458949 75.2
2021-09-20 14:50:00 90.6 16.0 38.3 90.6 4.7 8.0 5.3 294.7 260.4 0.00 0.2424923 75.3
2021-09-20 14:55:00 92.0 15.1 37.8 92.0 4.9 13.9 8.4 265.2 298.3 0.00 0.2382478 75.3
2021-09-20 15:00:00 92.0 14.2 36.5 92.0 10.1 10.5 7.4 299.5 288.3 0.00 0.2358002 75.3
2021-09-20 15:05:00 92.4 13.4 35.1 92.4 5.1 12.6 8.0 285.9 307.7 0.00 0.2334891 75.3
2021-09-20 15:10:00 92.5 14.7 37.6 92.5 4.4 7.1 4.7 236.5 272.3 0.00 0.2287211 75.4
2021-09-20 15:15:00 91.9 16.1 39.5 91.9 8.3 11.7 5.6 248.9 260.6 0.00 0.2249213 75.4
2021-09-20 15:20:00 91.5 16.5 39.8 91.5 7.4 12.8 8.4 244.6 267.6 0.00 0.2216753 75.4
2021-09-20 15:25:00 91.1 17.4 40.8 91.1 8.7 10.3 6.3 254.6 255.0 0.00 0.2190612 75.4
2021-09-20 15:30:00 90.7 16.8 39.5 90.7 6.2 10.1 7.0 271.5 260.2 0.00 0.2151839 75.5
2021-09-20 15:35:00 91.7 14.5 36.6 91.7 9.7 9.7 5.8 314.9 283.5 0.00 0.2092944 75.5
2021-09-20 15:40:00 92.5 16.3 40.3 92.5 3.3 10.1 7.0 244.5 302.8 0.00 0.2041970 75.5
2021-09-20 15:45:00 91.9 15.8 39.0 91.9 6.9 13.9 8.4 267.4 285.9 0.00 0.1996520 75.6
2021-09-20 15:50:00 91.7 15.8 38.9 91.7 8.5 12.1 8.4 263.5 279.5 0.00 0.1952005 75.6
2021-09-20 15:55:00 91.7 13.4 34.7 91.7 7.4 10.8 7.8 306.4 284.1 0.00 0.1905275 75.6
2021-09-20 16:00:00 92.2 16.2 40.0 92.2 8.7 11.3 6.7 247.8 279.3 0.00 0.1855996 75.6
2021-09-20 16:05:00 91.9 15.5 38.4 91.9 6.0 11.2 7.7 256.3 278.2 0.00 0.1804117 75.6
2021-09-20 16:10:00 92.0 15.5 38.5 92.0 6.5 9.7 6.4 272.1 279.9 0.00 0.1766723 75.6
2021-09-20 16:15:00 92.0 13.6 35.2 92.0 8.8 11.5 7.6 312.1 297.6 0.00 0.1715172 75.7
2021-09-20 16:20:00 92.2 15.9 39.4 92.2 5.6 12.1 7.5 228.5 291.5 0.00 0.1671409 75.7
2021-09-20 16:25:00 91.7 15.3 38.0 91.7 6.9 9.7 7.6 287.8 270.4 0.00 0.1621373 75.7
2021-09-20 16:30:00 92.1 13.8 35.8 92.1 9.9 12.6 7.7 294.1 290.4 0.00 0.1577037 75.7
2021-09-20 16:35:00 92.1 14.0 36.1 92.1 4.9 13.1 5.8 275.8 280.1 0.00 0.1521657 75.7
2021-09-20 16:40:00 91.9 14.5 36.8 91.9 8.7 10.3 6.5 245.8 279.4 0.00 0.1464499 75.7
2021-09-20 16:45:00 91.7 16.4 39.8 91.7 3.8 10.1 6.3 283.0 274.1 0.00 0.1413965 75.7
2021-09-20 16:50:00 91.6 15.7 38.6 91.6 6.9 13.7 6.0 275.7 264.0 0.00 0.1360534 75.7
2021-09-20 16:55:00 91.7 17.5 41.5 91.7 3.5 9.6 6.1 336.9 315.2 0.00 0.1305476 75.7
2021-09-20 17:00:00 91.4 20.1 44.9 91.4 2.4 6.0 4.0 235.7 263.5 0.00 0.1258236 75.7
2021-09-20 17:05:00 90.8 16.5 39.2 90.8 3.5 9.4 4.3 242.9 261.0 0.00 0.1210244 75.7
2021-09-20 17:10:00 89.7 16.1 37.7 89.7 9.6 12.4 6.5 250.3 235.0 0.00 0.1154124 75.7
2021-09-20 17:15:00 89.6 15.7 36.9 89.6 6.0 9.7 7.1 230.7 257.8 0.00 0.1101980 75.7
2021-09-20 17:20:00 89.5 16.3 38.0 89.5 5.8 8.5 6.2 247.9 269.0 0.00 0.1052508 75.7
2021-09-20 17:25:00 90.4 13.7 34.2 90.4 8.0 13.1 7.0 250.6 271.4 0.00 0.0998685 75.7
2021-09-20 17:30:00 89.3 17.8 40.1 89.3 2.4 7.2 4.1 197.8 241.3 0.00 0.0940087 75.7
2021-09-20 17:35:00 89.1 17.8 39.8 89.1 4.0 9.0 4.5 280.1 246.4 0.00 0.0884669 75.8
2021-09-20 17:40:00 88.8 17.1 38.6 88.8 4.9 8.5 5.1 292.6 257.9 0.00 0.0837359 75.8
2021-09-20 17:45:00 88.3 18.6 40.2 88.3 5.1 8.8 5.6 232.3 252.2 0.00 0.0787580 75.7
2021-09-20 17:50:00 87.9 15.3 35.0 87.9 7.2 8.1 5.2 221.2 234.6 0.00 0.0735849 75.7
2021-09-20 17:55:00 88.0 15.8 35.9 88.0 5.6 11.0 6.3 242.4 249.3 0.00 0.0684365 75.7
2021-09-20 18:00:00 87.8 15.8 35.7 87.8 10.6 10.6 7.0 242.2 257.2 0.00 0.0638515 75.7
2021-09-20 18:05:00 87.7 16.9 37.4 87.7 2.8 9.7 5.3 246.5 258.2 0.00 0.0582025 75.7
2021-09-20 18:10:00 87.4 18.0 38.7 87.4 3.5 7.2 4.1 287.4 257.9 0.00 0.0534105 75.7
2021-09-20 18:15:00 86.8 18.1 38.5 86.8 4.6 6.2 4.4 251.8 253.9 0.00 0.0484046 75.7
2021-09-20 18:20:00 86.4 18.0 37.9 86.4 3.5 6.7 4.5 243.3 258.2 0.00 0.0435214 75.7
2021-09-20 18:25:00 86.0 18.5 38.3 86.0 6.5 8.1 5.1 301.7 251.1 0.00 0.0387485 75.7
2021-09-20 18:30:00 85.7 17.8 37.1 85.7 5.6 8.0 4.8 260.8 246.7 0.00 0.0338981 75.7
2021-09-20 18:35:00 85.5 17.7 36.7 85.5 4.6 8.0 4.8 260.6 253.6 0.00 0.0291481 75.7
2021-09-20 18:40:00 84.9 18.5 37.4 84.9 2.8 5.5 3.8 271.0 247.7 0.00 0.0238752 75.7
2021-09-20 18:45:00 84.2 19.3 37.9 84.2 3.7 6.2 3.9 249.4 244.7 0.00 0.0107025 75.7
2021-09-20 18:50:00 83.6 19.7 37.9 83.6 3.0 6.7 4.3 276.0 248.5 0.00 0.0033402 75.6
2021-09-20 18:55:00 83.2 19.4 37.2 83.2 3.1 6.0 3.7 236.5 242.2 0.00 0.0023034 75.6
2021-09-20 19:00:00 82.7 20.1 37.6 82.7 3.8 6.0 3.6 209.0 237.2 0.00 0.0013460 75.6
2021-09-20 19:05:00 82.6 19.7 37.1 82.6 3.7 7.2 4.3 237.3 234.3 0.00 0.0006637 75.6
2021-09-20 19:10:00 82.3 20.8 38.2 82.3 2.4 4.7 3.3 241.9 222.7 0.00 0.0000060 75.6
2021-09-20 19:15:00 81.5 21.8 38.7 81.5 3.0 4.0 2.5 265.5 241.3 0.00 0.0000000 75.5
2021-09-20 19:20:00 80.9 22.2 38.8 80.9 2.6 3.8 2.8 206.0 232.9 0.00 0.0000000 75.5
2021-09-20 19:25:00 80.7 22.0 38.4 80.7 2.6 4.7 3.4 201.5 220.5 0.00 0.0000000 75.5
2021-09-20 19:30:00 80.4 22.1 38.2 80.4 2.4 4.4 2.8 248.7 233.4 0.00 0.0000000 75.5
2021-09-20 19:35:00 80.3 22.7 38.8 80.3 2.4 3.7 2.7 235.3 222.8 0.00 0.0000000 75.5
2021-09-20 19:40:00 80.4 22.8 38.9 80.4 3.0 4.4 3.1 204.7 221.8 0.00 0.0000000 75.4
2021-09-20 19:45:00 80.1 22.8 38.7 80.1 3.8 4.9 3.3 213.8 224.9 0.00 0.0000000 75.4
2021-09-20 19:50:00 80.0 22.3 38.1 80.0 4.4 4.7 3.2 236.4 228.1 0.00 0.0000000 75.4
2021-09-20 19:55:00 79.8 23.0 38.8 79.8 2.1 4.4 2.5 231.2 237.0 0.00 0.0000000 75.4
2021-09-20 20:00:00 79.5 23.5 39.1 79.5 4.2 4.2 2.9 226.5 245.3 0.00 0.0000000 75.3
2021-09-20 20:05:00 79.5 23.7 39.2 79.5 3.8 5.5 3.7 218.1 246.9 0.00 0.0000000 75.3
2021-09-20 20:10:00 79.8 23.4 39.1 79.8 3.8 8.0 4.8 281.8 258.3 0.00 0.0000000 75.3
2021-09-20 20:15:00 79.6 23.7 39.4 79.6 3.5 5.6 3.8 248.8 255.6 0.00 0.0000000 75.3
2021-09-20 20:20:00 79.8 23.7 39.5 79.8 3.8 6.0 3.9 285.0 248.4 0.00 0.0000000 75.2
2021-09-20 20:25:00 79.5 23.8 39.3 79.5 4.7 4.9 3.2 193.7 246.5 0.00 0.0000000 75.2
2021-09-20 20:30:00 79.4 24.0 39.5 79.4 2.1 5.3 3.1 245.9 240.2 0.00 0.0000000 75.2
2021-09-20 20:35:00 79.2 24.2 39.5 79.2 4.2 4.2 2.8 240.2 234.0 0.00 0.0000000 75.1
2021-09-20 20:40:00 79.3 23.8 39.2 79.3 4.9 6.2 4.1 246.1 240.0 0.00 0.0000000 75.1
2021-09-20 20:45:00 79.2 24.3 39.6 79.2 2.4 6.7 3.6 242.4 255.1 0.00 0.0000000 75.1
2021-09-20 20:50:00 79.0 24.3 39.4 79.0 3.3 5.8 3.9 184.1 248.8 0.00 0.0000000 75.1
2021-09-20 20:55:00 78.9 23.8 38.8 78.9 4.4 6.5 4.2 241.0 254.2 0.00 0.0000000 75.1
2021-09-20 21:00:00 79.0 24.2 39.3 79.0 2.8 8.0 4.7 271.0 253.9 0.00 0.0000000 75.1
2021-09-20 21:05:00 78.5 24.5 39.3 78.5 3.3 5.8 3.9 258.4 256.9 0.00 0.0000000 75.0
2021-09-20 21:10:00 78.4 24.3 39.0 78.4 3.1 6.0 4.1 257.8 248.5 0.00 0.0000000 75.0
2021-09-20 21:15:00 78.4 24.6 39.3 78.4 3.0 6.0 4.2 291.3 263.9 0.00 0.0000000 75.0
2021-09-20 21:20:00 78.2 24.6 39.1 78.2 4.7 6.7 4.2 225.9 254.5 0.00 0.0000000 74.9
2021-09-20 21:25:00 78.2 25.0 39.5 78.2 2.8 6.3 4.3 260.1 259.5 0.00 0.0000000 74.9
2021-09-20 21:30:00 78.1 25.1 39.4 78.1 5.3 5.8 4.2 248.1 252.9 0.00 0.0000000 74.9
2021-09-20 21:35:00 78.1 25.0 39.4 78.1 3.7 7.1 4.6 287.0 255.7 0.00 0.0000000 74.8
2021-09-20 21:40:00 78.1 24.9 39.3 78.1 4.4 6.9 5.0 235.3 248.0 0.00 0.0000000 74.8
2021-09-20 21:45:00 78.1 25.1 39.5 78.1 3.1 6.9 4.8 222.4 256.0 0.00 0.0000000 74.8
2021-09-20 21:50:00 77.8 25.1 39.3 77.8 3.1 5.8 4.0 233.8 262.7 0.00 0.0000000 74.8
2021-09-20 21:55:00 77.6 25.7 39.7 77.6 4.6 5.5 3.5 252.5 254.2 0.00 0.0000000 74.7
2021-09-20 22:00:00 77.5 25.5 39.4 77.5 2.2 6.3 3.8 272.9 256.9 0.00 0.0000000 74.7
2021-09-20 22:05:00 77.2 25.8 39.5 77.2 3.7 5.1 2.9 317.4 274.5 0.00 0.0000000 74.7
2021-09-20 22:10:00 77.0 26.4 39.8 77.0 2.2 6.5 2.9 323.9 277.4 0.00 0.0000000 74.7
2021-09-20 22:15:00 76.7 26.2 39.5 76.7 3.1 3.7 1.9 224.4 262.7 0.00 0.0000000 74.6
2021-09-20 22:20:00 76.6 26.3 39.4 76.6 0.8 3.7 1.7 10.9 268.3 0.00 0.0000000 74.6
2021-09-20 22:25:00 75.0 31.3 42.6 75.0 2.4 3.1 1.6 45.9 53.1 0.00 0.0000000 74.6
2021-09-20 22:30:00 72.7 36.1 44.2 72.7 2.2 2.8 1.8 97.3 65.1 0.00 0.0000000 74.6
2021-09-20 22:35:00 69.9 41.8 45.6 69.9 0.0 3.3 1.2 52.3 88.2 0.00 0.0000000 74.6
2021-09-20 22:40:00 69.0 42.2 45.1 69.0 0.0 2.8 1.5 30.0 34.0 0.00 0.0000000 74.5
2021-09-20 22:45:00 69.2 40.8 44.3 69.2 0.0 3.1 1.0 58.3 45.6 0.00 0.0000000 74.5
2021-09-20 22:50:00 68.6 44.0 45.8 68.6 0.0 1.3 0.4 116.6 192.4 0.00 0.0000000 74.5
2021-09-20 22:55:00 67.7 45.5 45.9 67.7 1.9 2.1 0.3 116.2 124.6 0.00 0.0000000 74.4
2021-09-20 23:00:00 67.4 44.3 44.9 67.4 1.9 2.2 0.7 76.6 92.4 0.00 0.0000000 74.4
2021-09-20 23:05:00 68.0 40.9 43.3 68.0 0.0 2.6 0.7 288.3 91.9 0.00 0.0000000 74.4
2021-09-20 23:10:00 68.0 41.2 43.6 68.0 2.8 3.7 2.2 276.6 201.3 0.00 0.0000000 74.4
2021-09-20 23:15:00 69.9 34.7 40.8 69.9 2.8 4.0 1.5 346.3 288.0 0.00 0.0000620 74.4
2021-09-20 23:20:00 74.3 29.9 40.8 74.3 3.1 8.3 3.7 284.4 288.7 0.00 0.0002823 74.3
2021-09-20 23:25:00 74.6 30.3 41.4 74.6 2.6 4.4 2.0 338.6 332.2 0.00 0.0000000 74.3
2021-09-20 23:30:00 73.9 32.9 42.9 73.9 2.4 4.9 3.6 27.6 11.7 0.00 0.0000000 74.3
2021-09-20 23:35:00 72.9 35.6 44.0 72.9 3.3 4.4 3.3 322.9 9.3 0.00 0.0000000 74.2
2021-09-20 23:40:00 72.3 35.9 43.8 72.3 3.5 4.0 3.1 24.2 347.1 0.00 0.0000000 74.2
2021-09-20 23:45:00 71.3 37.7 44.2 71.3 0.0 3.7 0.6 159.8 326.1 0.00 0.0000000 74.2

Data is courtesy of the NM Climate Center. DO NOT USE IN LEGAL PROCEEDINGS.